Arnold, Michigan
Current Conditions -  °F | °C
As of 7:45 AM on Sunday 23 Nov 2014 (Local Time) from KSAW Reporting Station
Light Snow Light Snow  
Wind Chill: 32°   Ceiling: 200
Heat Index: 39°   Visibility: 0.25mi
Dew Point: 37°   Wind: 13mph
Humidity: 93%   Direction: 170°S
Pressure: 29.58"   Gusts: NA
Location:  46.05°N, 87.49°W
Report Text: KSAW 231245Z 17011KT 1/4SM -SN FG OVC002 04/03 A2958
Loading
Personal Weather Stations






























Interactive Weather Map New forecast layout! Learn more

10-Day Weather Forecast

Advertisements
Track Severe Weather on mobile